sensor_id;sensor_type;location;lat;lon;timestamp;P1;P2;P0
51258;PMS7003;37327;54.254;18.504;2023-02-23T00:00:48;22;16;11
51258;PMS7003;37327;54.254;18.504;2023-02-23T00:04:05;4;4;2
51258;PMS7003;37327;54.254;18.504;2023-02-23T00:07:23;10;9;8
51258;PMS7003;37327;54.254;18.504;2023-02-23T00:10:42;18;11;9
51258;PMS7003;37327;54.254;18.504;2023-02-23T00:14:00;14;12;10
51258;PMS7003;37327;54.254;18.504;2023-02-23T00:17:18;15;15;12
51258;PMS7003;37327;54.254;18.504;2023-02-23T00:20:39;16;14;10
51258;PMS7003;37327;54.254;18.504;2023-02-23T00:24:04;12;12;7
51258;PMS7003;37327;54.254;18.504;2023-02-23T00:27:24;8;6;4
51258;PMS7003;37327;54.254;18.504;2023-02-23T00:30:42;12;11;9
51258;PMS7003;37327;54.254;18.504;2023-02-23T00:34:02;13;12;10
51258;PMS7003;37327;54.254;18.504;2023-02-23T00:37:20;13;10;8
51258;PMS7003;37327;54.254;18.504;2023-02-23T00:40:38;15;10;9
51258;PMS7003;37327;54.254;18.504;2023-02-23T00:43:57;15;8;7
51258;PMS7003;37327;54.254;18.504;2023-02-23T00:47:16;12;9;7
51258;PMS7003;37327;54.254;18.504;2023-02-23T00:50:33;12;10;7
51258;PMS7003;37327;54.254;18.504;2023-02-23T00:53:52;7;7;6
51258;PMS7003;37327;54.254;18.504;2023-02-23T00:57:10;9;7;6
51258;PMS7003;37327;54.254;18.504;2023-02-23T01:00:27;10;7;6
51258;PMS7003;37327;54.254;18.504;2023-02-23T01:03:47;7;7;6
51258;PMS7003;37327;54.254;18.504;2023-02-23T01:07:05;9;5;4
51258;PMS7003;37327;54.254;18.504;2023-02-23T01:10:22;7;7;5
51258;PMS7003;37327;54.254;18.504;2023-02-23T01:13:40;10;5;5
51258;PMS7003;37327;54.254;18.504;2023-02-23T01:16:59;10;8;6
51258;PMS7003;37327;54.254;18.504;2023-02-23T01:20:17;5;4;4
51258;PMS7003;37327;54.254;18.504;2023-02-23T01:23:37;7;5;5
51258;PMS7003;37327;54.254;18.504;2023-02-23T01:26:54;5;3;3
51258;PMS7003;37327;54.254;18.504;2023-02-23T01:30:13;6;5;4
51258;PMS7003;37327;54.254;18.504;2023-02-23T01:33:31;5;4;4
51258;PMS7003;37327;54.254;18.504;2023-02-23T01:36:48;7;4;4
51258;PMS7003;37327;54.254;18.504;2023-02-23T01:40:06;10;6;4
51258;PMS7003;37327;54.254;18.504;2023-02-23T01:43:30;3;2;2
51258;PMS7003;37327;54.254;18.504;2023-02-23T01:46:48;7;5;4
51258;PMS7003;37327;54.254;18.504;2023-02-23T01:50:06;3;3;3
51258;PMS7003;37327;54.254;18.504;2023-02-23T01:53:27;5;5;4
51258;PMS7003;37327;54.254;18.504;2023-02-23T01:56:52;7;5;4
51258;PMS7003;37327;54.254;18.504;2023-02-23T02:00:15;5;3;2
51258;PMS7003;37327;54.254;18.504;2023-02-23T02:03:36;5;5;4
51258;PMS7003;37327;54.254;18.504;2023-02-23T02:06:59;4;4;3
51258;PMS7003;37327;54.254;18.504;2023-02-23T02:10:19;6;4;3
51258;PMS7003;37327;54.254;18.504;2023-02-23T02:13:47;5;4;3
51258;PMS7003;37327;54.254;18.504;2023-02-23T02:38:18;7;2;2
51258;PMS7003;37327;54.254;18.504;2023-02-23T02:55:35;7;5;5
51258;PMS7003;37327;54.254;18.504;2023-02-23T02:58:59;3;3;3
51258;PMS7003;37327;54.254;18.504;2023-02-23T03:02:18;4;4;4
51258;PMS7003;37327;54.254;18.504;2023-02-23T03:05:51;3;3;3
51258;PMS7003;37327;54.254;18.504;2023-02-23T03:09:29;3;3;2
51258;PMS7003;37327;54.254;18.504;2023-02-23T03:13:12;5;3;3
51258;PMS7003;37327;54.254;18.504;2023-02-23T03:24:21;4;3;2
51258;PMS7003;37327;54.254;18.504;2023-02-23T03:27:55;3;3;2
51258;PMS7003;37327;54.254;18.504;2023-02-23T03:38:57;4;2;2
51258;PMS7003;37327;54.254;18.504;2023-02-23T03:42:31;3;2;2
51258;PMS7003;37327;54.254;18.504;2023-02-23T03:46:05;4;2;2
51258;PMS7003;37327;54.254;18.504;2023-02-23T03:49:39;2;1;1
51258;PMS7003;37327;54.254;18.504;2023-02-23T03:53:11;3;2;2
51258;PMS7003;37327;54.254;18.504;2023-02-23T03:56:47;3;3;3
51258;PMS7003;37327;54.254;18.504;2023-02-23T04:00:26;3;1;1
51258;PMS7003;37327;54.254;18.504;2023-02-23T04:04:00;2;1;1
51258;PMS7003;37327;54.254;18.504;2023-02-23T04:07:31;1;1;1
51258;PMS7003;37327;54.254;18.504;2023-02-23T04:11:22;5;3;2
51258;PMS7003;37327;54.254;18.504;2023-02-23T04:18:19;0;0;0
51258;PMS7003;37327;54.254;18.504;2023-02-23T04:21:41;3;2;2
51258;PMS7003;37327;54.254;18.504;2023-02-23T04:24:58;5;3;3
51258;PMS7003;37327;54.254;18.504;2023-02-23T04:28:15;0;0;0
51258;PMS7003;37327;54.254;18.504;2023-02-23T04:31:33;3;2;2
51258;PMS7003;37327;54.254;18.504;2023-02-23T04:34:51;4;3;1
51258;PMS7003;37327;54.254;18.504;2023-02-23T04:38:08;2;1;1
51258;PMS7003;37327;54.254;18.504;2023-02-23T04:41:26;3;2;2
51258;PMS7003;37327;54.254;18.504;2023-02-23T04:44:43;6;4;3
51258;PMS7003;37327;54.254;18.504;2023-02-23T04:48:01;5;4;1
51258;PMS7003;37327;54.254;18.504;2023-02-23T04:51:18;7;3;2
51258;PMS7003;37327;54.254;18.504;2023-02-23T04:54:39;3;3;2
51258;PMS7003;37327;54.254;18.504;2023-02-23T04:57:57;5;4;2
51258;PMS7003;37327;54.254;18.504;2023-02-23T05:01:16;6;3;2
51258;PMS7003;37327;54.254;18.504;2023-02-23T05:04:35;3;3;3
51258;PMS7003;37327;54.254;18.504;2023-02-23T05:07:53;5;2;2
51258;PMS7003;37327;54.254;18.504;2023-02-23T05:11:10;2;2;2
51258;PMS7003;37327;54.254;18.504;2023-02-23T05:14:28;3;3;2
51258;PMS7003;37327;54.254;18.504;2023-02-23T05:17:45;6;3;2
51258;PMS7003;37327;54.254;18.504;2023-02-23T05:21:04;2;2;0
51258;PMS7003;37327;54.254;18.504;2023-02-23T05:24:23;4;2;2
51258;PMS7003;37327;54.254;18.504;2023-02-23T05:27:41;4;3;2
51258;PMS7003;37327;54.254;18.504;2023-02-23T05:30:58;4;2;1
51258;PMS7003;37327;54.254;18.504;2023-02-23T05:34:16;3;1;1
51258;PMS7003;37327;54.254;18.504;2023-02-23T05:37:33;3;2;2
51258;PMS7003;37327;54.254;18.504;2023-02-23T05:40:50;2;2;2
51258;PMS7003;37327;54.254;18.504;2023-02-23T05:44:08;2;2;2
51258;PMS7003;37327;54.254;18.504;2023-02-23T05:47:26;5;1;1
51258;PMS7003;37327;54.254;18.504;2023-02-23T05:50:43;2;2;2
51258;PMS7003;37327;54.254;18.504;2023-02-23T05:54:01;4;2;1
51258;PMS7003;37327;54.254;18.504;2023-02-23T05:57:19;5;2;2
51258;PMS7003;37327;54.254;18.504;2023-02-23T06:00:37;0;0;0
51258;PMS7003;37327;54.254;18.504;2023-02-23T06:03:54;1;1;1
51258;PMS7003;37327;54.254;18.504;2023-02-23T06:07:12;4;1;1
51258;PMS7003;37327;54.254;18.504;2023-02-23T06:10:30;2;2;2
51258;PMS7003;37327;54.254;18.504;2023-02-23T06:13:48;2;2;1
51258;PMS7003;37327;54.254;18.504;2023-02-23T06:17:05;3;3;2
51258;PMS7003;37327;54.254;18.504;2023-02-23T06:20:23;4;2;1
51258;PMS7003;37327;54.254;18.504;2023-02-23T06:23:41;3;2;2
51258;PMS7003;37327;54.254;18.504;2023-02-23T06:26:59;5;2;2
51258;PMS7003;37327;54.254;18.504;2023-02-23T06:30:17;4;2;2
51258;PMS7003;37327;54.254;18.504;2023-02-23T06:33:34;3;2;2
51258;PMS7003;37327;54.254;18.504;2023-02-23T06:36:52;4;3;3
51258;PMS7003;37327;54.254;18.504;2023-02-23T06:40:10;5;2;2
51258;PMS7003;37327;54.254;18.504;2023-02-23T06:43:28;5;3;2
51258;PMS7003;37327;54.254;18.504;2023-02-23T06:46:46;1;0;0
51258;PMS7003;37327;54.254;18.504;2023-02-23T06:50:04;3;3;3
51258;PMS7003;37327;54.254;18.504;2023-02-23T06:53:22;4;3;3
51258;PMS7003;37327;54.254;18.504;2023-02-23T06:56:40;10;5;5
51258;PMS7003;37327;54.254;18.504;2023-02-23T06:59:58;6;5;4
51258;PMS7003;37327;54.254;18.504;2023-02-23T07:03:17;5;4;3
51258;PMS7003;37327;54.254;18.504;2023-02-23T07:06:34;3;2;2
51258;PMS7003;37327;54.254;18.504;2023-02-23T07:09:53;5;5;4
51258;PMS7003;37327;54.254;18.504;2023-02-23T07:13:11;5;4;3
51258;PMS7003;37327;54.254;18.504;2023-02-23T07:16:31;7;6;4
51258;PMS7003;37327;54.254;18.504;2023-02-23T07:19:48;6;5;4
51258;PMS7003;37327;54.254;18.504;2023-02-23T07:23:06;6;5;4
51258;PMS7003;37327;54.254;18.504;2023-02-23T07:26:24;6;5;4
51258;PMS7003;37327;54.254;18.504;2023-02-23T07:29:42;9;6;5
51258;PMS7003;37327;54.254;18.504;2023-02-23T07:33:00;5;5;4
51258;PMS7003;37327;54.254;18.504;2023-02-23T07:36:17;8;5;3
51258;PMS7003;37327;54.254;18.504;2023-02-23T07:39:34;10;7;6
51258;PMS7003;37327;54.254;18.504;2023-02-23T07:42:51;5;4;4
51258;PMS7003;37327;54.254;18.504;2023-02-23T07:46:11;5;4;3
51258;PMS7003;37327;54.254;18.504;2023-02-23T07:49:31;6;4;3
51258;PMS7003;37327;54.254;18.504;2023-02-23T07:52:50;5;5;4
51258;PMS7003;37327;54.254;18.504;2023-02-23T07:56:08;9;4;2
51258;PMS7003;37327;54.254;18.504;2023-02-23T07:59:27;4;4;3
51258;PMS7003;37327;54.254;18.504;2023-02-23T08:02:44;4;4;3
51258;PMS7003;37327;54.254;18.504;2023-02-23T08:06:02;8;6;4
51258;PMS7003;37327;54.254;18.504;2023-02-23T08:09:20;3;3;2
51258;PMS7003;37327;54.254;18.504;2023-02-23T08:12:38;5;5;4
51258;PMS7003;37327;54.254;18.504;2023-02-23T08:15:55;8;5;4
51258;PMS7003;37327;54.254;18.504;2023-02-23T08:19:13;6;4;3
51258;PMS7003;37327;54.254;18.504;2023-02-23T08:22:30;4;4;4
51258;PMS7003;37327;54.254;18.504;2023-02-23T08:25:48;4;4;4
51258;PMS7003;37327;54.254;18.504;2023-02-23T08:29:03;4;4;3
51258;PMS7003;37327;54.254;18.504;2023-02-23T08:32:20;7;5;4
51258;PMS7003;37327;54.254;18.504;2023-02-23T08:35:38;4;4;2
51258;PMS7003;37327;54.254;18.504;2023-02-23T08:38:55;7;5;5
51258;PMS7003;37327;54.254;18.504;2023-02-23T08:42:15;10;6;5
51258;PMS7003;37327;54.254;18.504;2023-02-23T08:45:34;4;4;3
51258;PMS7003;37327;54.254;18.504;2023-02-23T08:48:54;8;6;5
51258;PMS7003;37327;54.254;18.504;2023-02-23T08:52:12;6;6;5
51258;PMS7003;37327;54.254;18.504;2023-02-23T08:55:30;9;7;5
51258;PMS7003;37327;54.254;18.504;2023-02-23T08:58:50;10;6;5
51258;PMS7003;37327;54.254;18.504;2023-02-23T09:02:10;10;9;8
51258;PMS7003;37327;54.254;18.504;2023-02-23T09:05:29;10;8;7
51258;PMS7003;37327;54.254;18.504;2023-02-23T09:08:47;10;8;7
51258;PMS7003;37327;54.254;18.504;2023-02-23T09:12:05;12;7;6
51258;PMS7003;37327;54.254;18.504;2023-02-23T09:15:22;8;8;6
51258;PMS7003;37327;54.254;18.504;2023-02-23T09:18:40;8;7;7
51258;PMS7003;37327;54.254;18.504;2023-02-23T09:21:57;7;7;6
51258;PMS7003;37327;54.254;18.504;2023-02-23T09:25:15;10;7;6
51258;PMS7003;37327;54.254;18.504;2023-02-23T09:28:37;11;9;7
51258;PMS7003;37327;54.254;18.504;2023-02-23T09:31:56;10;7;7
51258;PMS7003;37327;54.254;18.504;2023-02-23T09:35:14;7;7;5
51258;PMS7003;37327;54.254;18.504;2023-02-23T09:38:33;9;9;7
51258;PMS7003;37327;54.254;18.504;2023-02-23T09:41:57;10;8;6
51258;PMS7003;37327;54.254;18.504;2023-02-23T09:48:53;7;7;6
51258;PMS7003;37327;54.254;18.504;2023-02-23T09:52:17;6;5;4
51258;PMS7003;37327;54.254;18.504;2023-02-23T09:55:38;10;7;6
51258;PMS7003;37327;54.254;18.504;2023-02-23T09:58:58;9;7;7
51258;PMS7003;37327;54.254;18.504;2023-02-23T10:05:50;6;5;5
51258;PMS7003;37327;54.254;18.504;2023-02-23T10:09:17;11;10;8
51258;PMS7003;37327;54.254;18.504;2023-02-23T10:23:08;10;10;8
51258;PMS7003;37327;54.254;18.504;2023-02-23T10:26:33;11;9;7
51258;PMS7003;37327;54.254;18.504;2023-02-23T10:29:59;7;7;6
51258;PMS7003;37327;54.254;18.504;2023-02-23T10:33:25;7;7;5
51258;PMS7003;37327;54.254;18.504;2023-02-23T10:36:50;14;9;8
51258;PMS7003;37327;54.254;18.504;2023-02-23T10:40:32;10;10;9
51258;PMS7003;37327;54.254;18.504;2023-02-23T10:43:43;9;7;5
51258;PMS7003;37327;54.254;18.504;2023-02-23T10:47:01;8;8;6
51258;PMS7003;37327;54.254;18.504;2023-02-23T10:50:25;10;10;8
51258;PMS7003;37327;54.254;18.504;2023-02-23T10:53:44;11;11;9
51258;PMS7003;37327;54.254;18.504;2023-02-23T10:57:02;6;5;3
51258;PMS7003;37327;54.254;18.504;2023-02-23T11:00:24;11;11;8
51258;PMS7003;37327;54.254;18.504;2023-02-23T11:03:48;13;10;8
51258;PMS7003;37327;54.254;18.504;2023-02-23T11:07:12;10;9;8
51258;PMS7003;37327;54.254;18.504;2023-02-23T11:10:36;9;8;6
51258;PMS7003;37327;54.254;18.504;2023-02-23T11:13:56;12;10;8
51258;PMS7003;37327;54.254;18.504;2023-02-23T11:20:45;9;9;7
51258;PMS7003;37327;54.254;18.504;2023-02-23T11:27:36;8;7;5
51258;PMS7003;37327;54.254;18.504;2023-02-23T11:34:27;13;10;10
51258;PMS7003;37327;54.254;18.504;2023-02-23T11:37:47;9;7;7
51258;PMS7003;37327;54.254;18.504;2023-02-23T11:41:09;11;10;7
51258;PMS7003;37327;54.254;18.504;2023-02-23T11:44:33;10;9;7
51258;PMS7003;37327;54.254;18.504;2023-02-23T11:47:54;7;4;3
51258;PMS7003;37327;54.254;18.504;2023-02-23T11:51:24;13;11;9
51258;PMS7003;37327;54.254;18.504;2023-02-23T11:54:39;11;9;9
51258;PMS7003;37327;54.254;18.504;2023-02-23T12:05:06;12;9;7
51258;PMS7003;37327;54.254;18.504;2023-02-23T12:08:33;12;11;9
51258;PMS7003;37327;54.254;18.504;2023-02-23T12:12:08;13;10;8
51258;PMS7003;37327;54.254;18.504;2023-02-23T12:15:33;10;8;7
51258;PMS7003;37327;54.254;18.504;2023-02-23T12:22:26;10;10;8
51258;PMS7003;37327;54.254;18.504;2023-02-23T12:29:30;7;7;6
51258;PMS7003;37327;54.254;18.504;2023-02-23T12:32:50;11;9;7
51258;PMS7003;37327;54.254;18.504;2023-02-23T12:36:58;12;10;8
51258;PMS7003;37327;54.254;18.504;2023-02-23T12:39:51;11;11;10
51258;PMS7003;37327;54.254;18.504;2023-02-23T12:43:20;13;11;8
51258;PMS7003;37327;54.254;18.504;2023-02-23T12:46:45;9;7;7
51258;PMS7003;37327;54.254;18.504;2023-02-23T12:50:15;6;6;5
51258;PMS7003;37327;54.254;18.504;2023-02-23T12:53:40;11;8;8
51258;PMS7003;37327;54.254;18.504;2023-02-23T13:14:29;16;14;11
51258;PMS7003;37327;54.254;18.504;2023-02-23T13:18:04;17;13;11
51258;PMS7003;37327;54.254;18.504;2023-02-23T13:21:32;14;14;10
51258;PMS7003;37327;54.254;18.504;2023-02-23T13:24:56;14;12;11
51258;PMS7003;37327;54.254;18.504;2023-02-23T13:28:24;13;12;10
51258;PMS7003;37327;54.254;18.504;2023-02-23T13:31:46;19;16;13
51258;PMS7003;37327;54.254;18.504;2023-02-23T13:35:04;14;12;10
51258;PMS7003;37327;54.254;18.504;2023-02-23T13:45:26;16;11;9
51258;PMS7003;37327;54.254;18.504;2023-02-23T13:48:54;13;11;9
51258;PMS7003;37327;54.254;18.504;2023-02-23T13:55:50;16;14;11
51258;PMS7003;37327;54.254;18.504;2023-02-23T13:59:14;17;15;10
51258;PMS7003;37327;54.254;18.504;2023-02-23T14:02:37;13;10;9
51258;PMS7003;37327;54.254;18.504;2023-02-23T14:05:59;12;11;10
51258;PMS7003;37327;54.254;18.504;2023-02-23T14:09:18;15;11;9
51258;PMS7003;37327;54.254;18.504;2023-02-23T14:12:41;13;13;9
51258;PMS7003;37327;54.254;18.504;2023-02-23T14:19:37;15;10;8
51258;PMS7003;37327;54.254;18.504;2023-02-23T14:36:54;14;12;9
51258;PMS7003;37327;54.254;18.504;2023-02-23T14:40:12;14;12;11
51258;PMS7003;37327;54.254;18.504;2023-02-23T14:43:39;14;11;10
51258;PMS7003;37327;54.254;18.504;2023-02-23T14:47:03;15;12;10
51258;PMS7003;37327;54.254;18.504;2023-02-23T14:50:30;16;12;10
51258;PMS7003;37327;54.254;18.504;2023-02-23T14:53:50;12;9;8
51258;PMS7003;37327;54.254;18.504;2023-02-23T15:00:40;13;9;8
51258;PMS7003;37327;54.254;18.504;2023-02-23T15:07:39;16;15;11
51258;PMS7003;37327;54.254;18.504;2023-02-23T15:14:26;12;12;9
51258;PMS7003;37327;54.254;18.504;2023-02-23T15:17:48;18;13;11
51258;PMS7003;37327;54.254;18.504;2023-02-23T15:21:12;14;12;9
51258;PMS7003;37327;54.254;18.504;2023-02-23T15:31:34;11;11;9
51258;PMS7003;37327;54.254;18.504;2023-02-23T15:34:54;14;11;9
51258;PMS7003;37327;54.254;18.504;2023-02-23T15:38:14;14;10;5
51258;PMS7003;37327;54.254;18.504;2023-02-23T15:41:37;12;9;8
51258;PMS7003;37327;54.254;18.504;2023-02-23T15:45:00;13;13;10
51258;PMS7003;37327;54.254;18.504;2023-02-23T15:48:20;17;12;11
51258;PMS7003;37327;54.254;18.504;2023-02-23T15:51:44;20;16;12
51258;PMS7003;37327;54.254;18.504;2023-02-23T15:55:07;17;14;10
51258;PMS7003;37327;54.254;18.504;2023-02-23T15:58:36;15;13;11
51258;PMS7003;37327;54.254;18.504;2023-02-23T16:01:57;16;14;11
51258;PMS7003;37327;54.254;18.504;2023-02-23T16:05:19;24;16;13
51258;PMS7003;37327;54.254;18.504;2023-02-23T16:08:46;14;13;10
51258;PMS7003;37327;54.254;18.504;2023-02-23T16:12:11;17;14;12
51258;PMS7003;37327;54.254;18.504;2023-02-23T16:15:33;14;13;11
51258;PMS7003;37327;54.254;18.504;2023-02-23T16:18:54;19;15;10
51258;PMS7003;37327;54.254;18.504;2023-02-23T16:22:21;20;17;12
51258;PMS7003;37327;54.254;18.504;2023-02-23T16:25:40;14;12;10
51258;PMS7003;37327;54.254;18.504;2023-02-23T16:29:00;15;14;11
51258;PMS7003;37327;54.254;18.504;2023-02-23T16:32:20;22;15;12
51258;PMS7003;37327;54.254;18.504;2023-02-23T16:35:45;22;16;11
51258;PMS7003;37327;54.254;18.504;2023-02-23T16:42:33;17;15;12
51258;PMS7003;37327;54.254;18.504;2023-02-23T16:45:51;17;14;11
51258;PMS7003;37327;54.254;18.504;2023-02-23T16:49:09;18;14;12
51258;PMS7003;37327;54.254;18.504;2023-02-23T16:52:28;18;15;13
51258;PMS7003;37327;54.254;18.504;2023-02-23T16:59:11;17;16;13
51258;PMS7003;37327;54.254;18.504;2023-02-23T17:02:32;15;12;8
51258;PMS7003;37327;54.254;18.504;2023-02-23T17:05:51;19;18;13
51258;PMS7003;37327;54.254;18.504;2023-02-23T17:09:10;18;14;11
51258;PMS7003;37327;54.254;18.504;2023-02-23T17:12:28;18;15;12
51258;PMS7003;37327;54.254;18.504;2023-02-23T17:15:45;19;15;12
51258;PMS7003;37327;54.254;18.504;2023-02-23T17:19:08;20;16;13
51258;PMS7003;37327;54.254;18.504;2023-02-23T17:22:26;22;16;11
51258;PMS7003;37327;54.254;18.504;2023-02-23T17:25:44;15;14;12
51258;PMS7003;37327;54.254;18.504;2023-02-23T17:29:02;19;18;14
51258;PMS7003;37327;54.254;18.504;2023-02-23T17:32:20;27;21;16
51258;PMS7003;37327;54.254;18.504;2023-02-23T17:35:40;21;16;11
51258;PMS7003;37327;54.254;18.504;2023-02-23T17:38:59;17;13;9
51258;PMS7003;37327;54.254;18.504;2023-02-23T17:42:17;18;17;13
51258;PMS7003;37327;54.254;18.504;2023-02-23T17:45:35;14;12;9
51258;PMS7003;37327;54.254;18.504;2023-02-23T17:48:52;19;17;12
51258;PMS7003;37327;54.254;18.504;2023-02-23T17:52:10;18;16;13
51258;PMS7003;37327;54.254;18.504;2023-02-23T17:55:28;19;12;7
51258;PMS7003;37327;54.254;18.504;2023-02-23T17:58:48;8;6;3
51258;PMS7003;37327;54.254;18.504;2023-02-23T18:02:07;19;17;12
51258;PMS7003;37327;54.254;18.504;2023-02-23T18:05:35;24;18;13
51258;PMS7003;37327;54.254;18.504;2023-02-23T18:08:52;22;18;14
51258;PMS7003;37327;54.254;18.504;2023-02-23T18:12:09;20;16;13
51258;PMS7003;37327;54.254;18.504;2023-02-23T18:15:27;18;15;12
51258;PMS7003;37327;54.254;18.504;2023-02-23T18:18:45;14;14;11
51258;PMS7003;37327;54.254;18.504;2023-02-23T18:22:04;25;22;15
51258;PMS7003;37327;54.254;18.504;2023-02-23T18:25:25;17;17;14
51258;PMS7003;37327;54.254;18.504;2023-02-23T18:28:45;19;19;13
51258;PMS7003;37327;54.254;18.504;2023-02-23T18:32:03;18;17;13
51258;PMS7003;37327;54.254;18.504;2023-02-23T18:35:23;11;10;8
51258;PMS7003;37327;54.254;18.504;2023-02-23T18:38:40;22;14;10
51258;PMS7003;37327;54.254;18.504;2023-02-23T18:41:58;21;17;15
51258;PMS7003;37327;54.254;18.504;2023-02-23T18:45:15;21;18;13
51258;PMS7003;37327;54.254;18.504;2023-02-23T18:48:33;19;16;13
51258;PMS7003;37327;54.254;18.504;2023-02-23T18:51:52;15;14;12
51258;PMS7003;37327;54.254;18.504;2023-02-23T18:55:10;21;19;13
51258;PMS7003;37327;54.254;18.504;2023-02-23T18:58:28;20;16;12
51258;PMS7003;37327;54.254;18.504;2023-02-23T19:01:46;19;19;15
51258;PMS7003;37327;54.254;18.504;2023-02-23T19:05:04;31;23;15
51258;PMS7003;37327;54.254;18.504;2023-02-23T19:08:22;19;18;13
51258;PMS7003;37327;54.254;18.504;2023-02-23T19:11:40;13;11;9
51258;PMS7003;37327;54.254;18.504;2023-02-23T19:14:58;23;19;14
51258;PMS7003;37327;54.254;18.504;2023-02-23T19:18:16;22;18;13
51258;PMS7003;37327;54.254;18.504;2023-02-23T19:21:33;26;20;16
51258;PMS7003;37327;54.254;18.504;2023-02-23T19:24:51;20;19;15
51258;PMS7003;37327;54.254;18.504;2023-02-23T19:28:09;23;20;16
51258;PMS7003;37327;54.254;18.504;2023-02-23T19:31:29;27;21;14
51258;PMS7003;37327;54.254;18.504;2023-02-23T19:34:46;30;23;18
51258;PMS7003;37327;54.254;18.504;2023-02-23T19:38:03;25;20;16
51258;PMS7003;37327;54.254;18.504;2023-02-23T19:41:21;23;20;15
51258;PMS7003;37327;54.254;18.504;2023-02-23T19:44:38;25;22;16
51258;PMS7003;37327;54.254;18.504;2023-02-23T19:47:58;26;23;16
51258;PMS7003;37327;54.254;18.504;2023-02-23T19:51:15;27;22;17
51258;PMS7003;37327;54.254;18.504;2023-02-23T19:54:33;28;23;17
51258;PMS7003;37327;54.254;18.504;2023-02-23T19:57:53;24;21;16
51258;PMS7003;37327;54.254;18.504;2023-02-23T20:01:12;24;22;17
51258;PMS7003;37327;54.254;18.504;2023-02-23T20:04:32;28;26;16
51258;PMS7003;37327;54.254;18.504;2023-02-23T20:07:49;22;22;18
51258;PMS7003;37327;54.254;18.504;2023-02-23T20:11:08;23;21;15
51258;PMS7003;37327;54.254;18.504;2023-02-23T20:14:26;24;20;16
51258;PMS7003;37327;54.254;18.504;2023-02-23T20:17:44;25;24;17
51258;PMS7003;37327;54.254;18.504;2023-02-23T20:24:26;29;22;19
51258;PMS7003;37327;54.254;18.504;2023-02-23T20:27:43;30;24;18
51258;PMS7003;37327;54.254;18.504;2023-02-23T20:31:02;27;24;18
51258;PMS7003;37327;54.254;18.504;2023-02-23T20:34:20;24;24;18
51258;PMS7003;37327;54.254;18.504;2023-02-23T20:37:39;27;25;18
51258;PMS7003;37327;54.254;18.504;2023-02-23T20:40:56;25;22;15
51258;PMS7003;37327;54.254;18.504;2023-02-23T20:44:19;25;23;16
51258;PMS7003;37327;54.254;18.504;2023-02-23T20:47:39;27;21;17
51258;PMS7003;37327;54.254;18.504;2023-02-23T20:50:57;26;25;18
51258;PMS7003;37327;54.254;18.504;2023-02-23T20:54:17;24;22;17
51258;PMS7003;37327;54.254;18.504;2023-02-23T20:57:35;25;22;15
51258;PMS7003;37327;54.254;18.504;2023-02-23T21:00:53;30;24;18
51258;PMS7003;37327;54.254;18.504;2023-02-23T21:04:12;25;23;16
51258;PMS7003;37327;54.254;18.504;2023-02-23T21:07:30;31;28;19
51258;PMS7003;37327;54.254;18.504;2023-02-23T21:10:47;21;21;17
51258;PMS7003;37327;54.254;18.504;2023-02-23T21:14:05;30;26;19
51258;PMS7003;37327;54.254;18.504;2023-02-23T21:17:23;23;21;16
51258;PMS7003;37327;54.254;18.504;2023-02-23T21:20:44;29;23;15
51258;PMS7003;37327;54.254;18.504;2023-02-23T21:24:01;34;29;21
51258;PMS7003;37327;54.254;18.504;2023-02-23T21:27:18;31;29;22
51258;PMS7003;37327;54.254;18.504;2023-02-23T21:30:37;29;26;19
51258;PMS7003;37327;54.254;18.504;2023-02-23T21:33:54;31;25;17
51258;PMS7003;37327;54.254;18.504;2023-02-23T21:37:13;32;28;19
51258;PMS7003;37327;54.254;18.504;2023-02-23T21:40:31;34;27;18
51258;PMS7003;37327;54.254;18.504;2023-02-23T21:43:48;34;29;21
51258;PMS7003;37327;54.254;18.504;2023-02-23T21:47:09;30;25;18
51258;PMS7003;37327;54.254;18.504;2023-02-23T21:50:26;36;27;19
51258;PMS7003;37327;54.254;18.504;2023-02-23T21:53:44;30;25;18
51258;PMS7003;37327;54.254;18.504;2023-02-23T21:57:02;32;29;19
51258;PMS7003;37327;54.254;18.504;2023-02-23T22:00:20;35;32;23
51258;PMS7003;37327;54.254;18.504;2023-02-23T22:03:39;36;28;19
51258;PMS7003;37327;54.254;18.504;2023-02-23T22:07:07;35;30;20
51258;PMS7003;37327;54.254;18.504;2023-02-23T22:10:25;28;23;14
51258;PMS7003;37327;54.254;18.504;2023-02-23T22:13:43;35;28;21
51258;PMS7003;37327;54.254;18.504;2023-02-23T22:17:01;30;25;14
51258;PMS7003;37327;54.254;18.504;2023-02-23T22:20:21;33;29;20
51258;PMS7003;37327;54.254;18.504;2023-02-23T22:23:40;31;24;18
51258;PMS7003;37327;54.254;18.504;2023-02-23T22:27:01;27;23;14
51258;PMS7003;37327;54.254;18.504;2023-02-23T22:30:19;29;27;19
51258;PMS7003;37327;54.254;18.504;2023-02-23T22:33:38;33;28;20
51258;PMS7003;37327;54.254;18.504;2023-02-23T22:36:58;34;28;19
51258;PMS7003;37327;54.254;18.504;2023-02-23T22:40:16;31;26;19
51258;PMS7003;37327;54.254;18.504;2023-02-23T22:43:33;28;24;18
51258;PMS7003;37327;54.254;18.504;2023-02-23T22:46:51;29;24;17
51258;PMS7003;37327;54.254;18.504;2023-02-23T22:50:09;28;25;19
51258;PMS7003;37327;54.254;18.504;2023-02-23T22:53:33;31;28;20
51258;PMS7003;37327;54.254;18.504;2023-02-23T22:56:50;25;24;17
51258;PMS7003;37327;54.254;18.504;2023-02-23T23:00:08;32;30;22
51258;PMS7003;37327;54.254;18.504;2023-02-23T23:03:29;31;26;20
51258;PMS7003;37327;54.254;18.504;2023-02-23T23:06:49;34;23;18
51258;PMS7003;37327;54.254;18.504;2023-02-23T23:10:08;29;23;18
51258;PMS7003;37327;54.254;18.504;2023-02-23T23:13:27;27;23;17
51258;PMS7003;37327;54.254;18.504;2023-02-23T23:16:47;26;21;17
51258;PMS7003;37327;54.254;18.504;2023-02-23T23:20:08;25;22;17
51258;PMS7003;37327;54.254;18.504;2023-02-23T23:23:27;25;22;16
51258;PMS7003;37327;54.254;18.504;2023-02-23T23:26:45;24;20;15
51258;PMS7003;37327;54.254;18.504;2023-02-23T23:30:03;22;20;15
51258;PMS7003;37327;54.254;18.504;2023-02-23T23:33:21;26;24;16
51258;PMS7003;37327;54.254;18.504;2023-02-23T23:36:46;23;22;17
51258;PMS7003;37327;54.254;18.504;2023-02-23T23:40:09;27;23;16
51258;PMS7003;37327;54.254;18.504;2023-02-23T23:43:30;30;22;16
51258;PMS7003;37327;54.254;18.504;2023-02-23T23:46:52;24;21;15
51258;PMS7003;37327;54.254;18.504;2023-02-23T23:50:10;20;19;12
51258;PMS7003;37327;54.254;18.504;2023-02-23T23:53:31;24;22;16
51258;PMS7003;37327;54.254;18.504;2023-02-23T23:56:49;25;19;13
